Accueil
METAR-TAF:

METAR-TAF

Aéroports :

Xi'an, Chine

Aéroport international de Xi'an Xianyang

latitude: 34-26N, longitude: 108-45E, altitude: 479 m

Observation

Le bulletin a été fait il y a 1 heure et 11 minutes, à 23:00 UTC
Vent 2 kt de ouest
Température -3°C
Humidité 80%
Pression 1031 hPa
Visibilité 10 km ou plus
pas de nuages en-dessous de 1500 mètres et pas de cumulonimbus.

METAR: ZLXY 222300Z 26001MPS CAVOK M03/M06 Q1031 NOSIG

Heure: 08:11 (00:11 UTC)

Prévision

Le bulletin a été fait il y a 5 heures et 4 minutes, à 19:07 UTC
Prévision valable du 23 à 00 UTC au 23 à 24 UTC
Vent 6 kt de ouest
Visibilité: 3000 m
brume sèche

TAF: ZLXY 221907Z 2300/2324 27003MPS 3000 HZ NSC TX10/2307Z TNM01/22Z

Observations et prévisions météorologiques de plus de 4000 aéroports (messages METAR et TAF).

Les stations disponibles sont représentées par des disques jaunes et rouges sur la carte.

Passer la souris dessus pour voir le nom de la station.

Cliquer dessus pour voir les observations et prévisions météorologiques.

Pour changer de carte: cliquez sur les boutons verts avec une croix noire pour zoomer, sur le bouton vert avec un tiret pour effectuer un zoom arrière, ou sur les flèches vertes pour les cartes adjacentes.


METAR-TAF: